createdAt,value
2022-09-05T00:04:57.831Z,99.90
2022-09-05T00:10:12.970Z,99.90
2022-09-05T00:15:26.046Z,99.90
2022-09-05T00:24:20.904Z,99.90
2022-09-05T00:26:17.249Z,99.90
2022-09-05T00:31:54.977Z,99.90
2022-09-05T00:37:00.096Z,99.90
2022-09-05T00:42:10.777Z,99.90
2022-09-05T00:47:26.316Z,99.90
2022-09-05T00:52:36.115Z,99.90
2022-09-05T00:58:00.624Z,99.90
2022-09-05T01:03:21.096Z,99.90
2022-09-05T01:08:40.992Z,99.90
2022-09-05T01:13:50.442Z,99.90
2022-09-05T01:19:05.790Z,99.90
2022-09-05T01:24:27.579Z,99.90
2022-09-05T01:29:38.231Z,99.90
2022-09-05T01:34:56.989Z,99.90
2022-09-05T01:40:15.892Z,99.90
2022-09-05T01:45:30.781Z,99.90
2022-09-05T01:50:54.388Z,99.90
2022-09-05T01:56:25.206Z,99.90
2022-09-05T02:01:41.020Z,99.90
2022-09-05T02:06:55.089Z,99.90
2022-09-05T02:12:02.899Z,99.90
2022-09-05T02:17:49.599Z,99.90
2022-09-05T02:22:58.288Z,99.90
2022-09-05T02:28:09.619Z,99.90
2022-09-05T02:33:21.889Z,99.90
2022-09-05T02:43:51.842Z,99.90
2022-09-05T02:45:11.900Z,99.90
2022-09-05T02:50:46.731Z,99.90
2022-09-05T02:58:04.979Z,99.90
2022-09-05T03:00:42.484Z,99.90
2022-09-05T03:05:56.945Z,99.90
2022-09-05T03:11:37.023Z,99.90
2022-09-05T03:17:40.718Z,99.90
2022-09-05T03:23:07.367Z,99.90
2022-09-05T03:28:43.698Z,99.90
2022-09-05T03:34:30.484Z,99.90
2022-09-05T03:40:15.675Z,99.90
2022-09-05T03:45:49.627Z,99.90
2022-09-05T03:57:06.747Z,99.90
2022-09-05T03:57:14.940Z,99.90
2022-09-05T04:04:30.476Z,99.90
2022-09-05T04:08:17.537Z,99.90
2022-09-05T04:13:20.946Z,99.90
2022-09-05T04:18:33.423Z,99.90
2022-09-05T04:23:57.809Z,99.90
2022-09-05T04:29:15.939Z,99.90
2022-09-05T04:34:34.154Z,99.90
2022-09-05T04:39:37.457Z,99.90
2022-09-05T04:44:47.749Z,99.90
2022-09-05T04:49:57.194Z,99.90
2022-09-05T04:55:07.363Z,99.90
2022-09-05T05:03:05.594Z,99.90
2022-09-05T05:06:18.909Z,99.90
2022-09-05T05:16:09.230Z,99.90
2022-09-05T05:18:11.321Z,99.90
2022-09-05T05:22:19.320Z,99.90
2022-09-05T05:27:27.876Z,99.90
2022-09-05T05:32:46.165Z,99.90
2022-09-05T05:37:55.229Z,99.90
2022-09-05T05:43:15.139Z,99.90
2022-09-05T05:48:34.982Z,99.90
2022-09-05T05:53:52.148Z,99.90
2022-09-05T05:59:30.424Z,99.90
2022-09-05T06:05:10.676Z,99.90
2022-09-05T06:14:26.148Z,99.90
2022-09-05T06:16:27.220Z,99.90
2022-09-05T06:22:13.774Z,99.90
2022-09-05T06:28:05.565Z,97.10
2022-09-05T06:33:20.824Z,91.20
2022-09-05T06:38:39.331Z,85.40
2022-09-05T06:44:23.851Z,82.50
2022-09-05T06:49:37.443Z,81.90
2022-09-05T06:55:11.751Z,84.10
2022-09-05T07:00:23.168Z,84.50
2022-09-05T07:05:39.888Z,85.20
2022-09-05T07:10:58.267Z,85.80
2022-09-05T07:16:29.942Z,85.70
2022-09-05T07:21:49.226Z,85.00
2022-09-05T07:26:58.815Z,87.20
2022-09-05T07:32:06.399Z,85.30
2022-09-05T07:37:14.916Z,84.80
2022-09-05T07:42:25.301Z,85.60
2022-09-05T07:47:31.491Z,88.70
2022-09-05T07:56:47.244Z,87.00
2022-09-05T07:58:08.829Z,86.40
2022-09-05T08:03:13.901Z,82.00
2022-09-05T08:08:19.395Z,83.30
2022-09-05T08:13:42.882Z,77.00
2022-09-05T08:18:54.220Z,73.80
2022-09-05T08:24:02.361Z,76.20
2022-09-05T08:29:30.930Z,78.60
2022-09-05T08:34:44.786Z,80.30
2022-09-05T08:39:54.324Z,79.70
2022-09-05T08:46:43.350Z,74.00
2022-09-05T08:51:11.170Z,70.70
2022-09-05T08:56:21.304Z,70.90
2022-09-05T09:01:44.570Z,68.50
2022-09-05T09:07:48.099Z,69.70
2022-09-05T09:13:03.624Z,69.90
2022-09-05T09:18:15.844Z,67.80
2022-09-05T09:23:42.648Z,70.30
2022-09-05T09:28:51.943Z,69.00
2022-09-05T09:34:24.275Z,65.70
2022-09-05T09:39:38.151Z,66.00
2022-09-05T09:45:28.719Z,67.20
2022-09-05T09:50:59.405Z,65.00
2022-09-05T09:56:29.009Z,66.00
2022-09-05T10:01:39.011Z,63.70
2022-09-05T10:11:09.180Z,66.80
2022-09-05T10:13:08.323Z,67.00
2022-09-05T10:18:39.921Z,63.90
2022-09-05T10:24:07.827Z,62.30
2022-09-05T10:29:36.891Z,63.60
2022-09-05T10:35:08.884Z,64.90
2022-09-05T10:40:14.395Z,63.90
2022-09-05T10:45:33.460Z,62.20
2022-09-05T10:50:44.611Z,61.50
2022-09-05T10:56:02.481Z,61.20
2022-09-05T11:02:26.443Z,61.90
2022-09-05T11:06:49.939Z,63.60
2022-09-05T11:12:04.661Z,61.40
2022-09-05T11:17:16.778Z,65.00
2022-09-05T11:22:24.582Z,63.10
2022-09-05T11:27:35.216Z,62.50
2022-09-05T11:39:45.624Z,63.00
2022-09-05T11:40:02.118Z,63.40
2022-09-05T11:44:35.679Z,61.80
2022-09-05T11:50:09.082Z,61.70
2022-09-05T11:55:49.490Z,62.20
2022-09-05T12:01:40.977Z,64.00
2022-09-05T12:06:49.663Z,62.10
2022-09-05T12:12:19.384Z,62.50
2022-09-05T12:17:50.901Z,62.40
2022-09-05T12:23:01.430Z,60.00
2022-09-05T12:28:31.412Z,62.10
2022-09-05T12:36:02.251Z,60.30
2022-09-05T12:41:32.746Z,59.00
2022-09-05T12:44:47.241Z,60.50
2022-09-05T12:50:03.447Z,59.80
2022-09-05T12:55:26.064Z,60.40
2022-09-05T13:03:03.376Z,58.00
2022-09-05T13:06:11.586Z,58.10
2022-09-05T13:14:46.679Z,58.10
2022-09-05T13:16:57.282Z,59.60
2022-09-05T13:22:04.082Z,58.60
2022-09-05T13:27:13.840Z,58.90
2022-09-05T13:37:59.804Z,60.20
2022-09-05T13:38:04.234Z,60.40
2022-09-05T13:43:13.836Z,58.80
2022-09-05T13:49:23.965Z,61.40
2022-09-05T13:54:24.275Z,59.80
2022-09-05T13:59:28.845Z,59.50
2022-09-05T14:05:11.068Z,62.60
2022-09-05T14:10:48.661Z,61.60
2022-09-05T14:15:58.799Z,59.60
2022-09-05T14:21:15.822Z,60.50
2022-09-05T14:26:26.661Z,63.40
2022-09-05T14:37:41.027Z,63.90
2022-09-05T14:37:53.460Z,62.10
2022-09-05T14:42:54.647Z,60.80
2022-09-05T14:48:13.266Z,60.40
2022-09-05T15:02:45.352Z,60.60
2022-09-05T15:12:14.821Z,61.90
2022-09-05T15:15:00.504Z,61.80
2022-09-05T15:20:08.907Z,60.90
2022-09-05T15:25:18.900Z,60.80
2022-09-05T15:30:29.633Z,61.10
2022-09-05T15:35:42.473Z,62.50
2022-09-05T15:40:45.591Z,61.90
2022-09-05T15:45:50.143Z,62.20
2022-09-05T15:50:55.625Z,63.10
2022-09-05T15:56:13.990Z,65.40
2022-09-05T16:01:48.573Z,67.20
2022-09-05T16:10:35.549Z,67.70
2022-09-05T16:12:27.635Z,68.90
2022-09-05T16:23:15.489Z,67.80
2022-09-05T16:23:34.061Z,69.20
2022-09-05T16:28:38.428Z,69.50
2022-09-05T16:33:43.660Z,71.50
2022-09-05T16:38:50.691Z,70.50
2022-09-05T16:43:58.148Z,71.00
2022-09-05T16:49:12.068Z,71.70
2022-09-05T16:54:21.900Z,72.10
2022-09-05T16:59:28.447Z,73.80
2022-09-05T17:05:02.990Z,73.20
2022-09-05T17:10:11.601Z,73.70
2022-09-05T17:15:17.364Z,74.70
2022-09-05T17:20:24.375Z,74.30
2022-09-05T17:29:49.900Z,75.00
2022-09-05T17:36:42.327Z,73.50
2022-09-05T17:42:05.122Z,73.60
2022-09-05T17:47:14.720Z,74.20
2022-09-05T17:52:23.357Z,75.40
2022-09-05T17:57:41.447Z,75.40
2022-09-05T18:02:54.595Z,76.50
2022-09-05T18:08:00.323Z,77.10
2022-09-05T18:19:33.035Z,79.50
2022-09-05T18:24:12.053Z,79.40
2022-09-05T18:29:28.690Z,81.30
2022-09-05T18:35:10.282Z,84.40
2022-09-05T18:40:36.831Z,84.00
2022-09-05T18:45:52.201Z,86.30
2022-09-05T18:51:15.009Z,87.00
2022-09-05T18:57:02.983Z,88.50
2022-09-05T19:02:04.955Z,87.70
2022-09-05T19:07:11.706Z,87.80
2022-09-05T19:12:34.964Z,89.30
2022-09-05T19:17:47.172Z,91.60
2022-09-05T19:23:10.443Z,90.80
2022-09-05T19:33:59.744Z,91.90
2022-09-05T19:37:15.603Z,92.20
2022-09-05T19:41:51.197Z,91.60
2022-09-05T19:47:40.244Z,91.70
2022-09-05T19:50:06.599Z,92.20
2022-09-05T19:55:21.968Z,92.80
2022-09-05T20:00:28.391Z,94.40
2022-09-05T20:05:32.247Z,94.40
2022-09-05T20:10:36.365Z,94.80
2022-09-05T20:15:42.096Z,96.10
2022-09-05T20:20:52.418Z,94.80
2022-09-05T20:25:57.817Z,94.50
2022-09-05T20:31:08.294Z,94.90
2022-09-05T20:42:52.461Z,94.80
2022-09-05T20:43:18.922Z,94.50
2022-09-05T20:50:58.295Z,94.80
2022-09-05T20:54:17.179Z,95.30
2022-09-05T20:57:57.035Z,95.60
2022-09-05T21:03:01.950Z,94.60
2022-09-05T21:08:20.968Z,94.10
2022-09-05T21:13:27.083Z,93.40
2022-09-05T21:18:33.876Z,93.10
2022-09-05T21:23:38.514Z,92.40
2022-09-05T21:29:04.220Z,91.60
2022-09-05T21:34:13.151Z,90.60
2022-09-05T21:39:18.631Z,90.80
2022-09-05T21:47:44.090Z,89.50
2022-09-05T21:49:46.445Z,88.10
2022-09-05T21:59:18.876Z,88.10
2022-09-05T22:00:17.151Z,86.10
2022-09-05T22:05:25.282Z,84.20
2022-09-05T22:10:35.687Z,83.80
2022-09-05T22:15:59.304Z,83.10
2022-09-05T22:21:34.182Z,82.10
2022-09-05T22:26:35.782Z,82.20
2022-09-05T22:31:39.403Z,81.30
2022-09-05T22:36:44.087Z,82.30
2022-09-05T22:41:47.230Z,79.50
2022-09-05T22:46:52.451Z,79.50
2022-09-05T22:51:56.820Z,78.00
2022-09-05T22:56:59.844Z,77.60
2022-09-05T23:02:02.976Z,78.30
2022-09-05T23:07:07.403Z,77.40
2022-09-05T23:12:10.459Z,76.70
2022-09-05T23:17:13.603Z,77.70
2022-09-05T23:22:18.035Z,76.60
2022-09-05T23:27:21.258Z,76.30
2022-09-05T23:32:24.423Z,74.90
2022-09-05T23:37:29.022Z,75.20
2022-09-05T23:42:32.066Z,76.30
2022-09-05T23:47:35.513Z,76.10
2022-09-05T23:52:42.291Z,75.20
2022-09-05T23:57:46.997Z,75.40
